WGE weather

Walgett Airport
New South Wales, Australia

Public forecast

Using degrees Celsius for public forecast. Weather courtesy of forecast.io.

METAR (pilot weather report)

Closest report is Coonamble Airport, 58.5 nm (108.4 km) SSE. Retrieved 2019/07/23 14:00 UTC (34 minutes ago):

YCNM 231400Z AUTO 32005KT //// // ////// 07/M03 Q1021

TAF (pilot weather forecast)

Closest forecast is Tamworth Airport, 154.2 nm (285.5 km) ESE. Retrieved 2019/07/23 12:36 UTC (2 hours ago):

TAF YSTW 231112Z 2312/2406 30006KT CAVOK FM240000 26012KT CAVOK